Time;durP1;ratioP1;P1;durP2;ratioP2;P2;SDS_P1;SDS_P2;PMS_P1;PMS_P2;Temp;Humidity;BMP_temperature;BMP_pressure;BME280_temperature;BME280_humidity;BME280_pressure;Samples;Min_cycle;Max_cycle;Signal;HPM_P1;HPM_P2
2021/12/05 00:18:23;;;;;;;16.57;6.13;;;;;;;;;;5042695;28;20840;-63
2021/12/05 00:23:34;;;;;;;14.43;6.07;;;;;;;;;;5045047;28;20077;-63
2021/12/05 00:26:03;;;;;;;15.00;6.50;;;;;;;;;;5045780;28;20116;-63
2021/12/05 00:34:11;;;;;;;13.17;5.77;;;;;;;;;;4999781;28;20056;-63
2021/12/05 00:53:00;;;;;;;14.37;5.97;;;;;;;;;;4968648;28;20577;-63
2021/12/05 00:55:55;;;;;;;14.53;5.77;;;;;;;;;;5018178;28;20098;-63
2021/12/05 01:12:01;;;;;;;13.35;6.32;;;;;;;;;;5043598;28;20120;-63
2021/12/05 01:16:44;;;;;;;13.47;6.23;;;;;;;;;;5044549;28;20057;-63
2021/12/05 01:19:13;;;;;;;17.90;6.40;;;;;;;;;;5045404;28;20480;-63
2021/12/05 01:21:40;;;;;;;16.97;6.53;;;;;;;;;;5045114;28;20501;-63
2021/12/05 01:42:26;;;;;;;13.02;5.78;;;;;;;;;;5044609;28;20828;-63
2021/12/05 01:47:49;;;;;;;12.97;6.17;;;;;;;;;;5047977;28;20120;-63
2021/12/05 02:09:18;;;;;;;14.17;5.67;;;;;;;;;;5041574;28;20045;-62
2021/12/05 02:34:02;;;;;;;9.37;4.50;;;;;;;;;;5044835;28;20103;-63
2021/12/05 02:42:17;;;;;;;9.30;5.05;;;;;;;;;;5012313;28;20127;-63
2021/12/05 02:44:44;;;;;;;12.63;5.73;;;;;;;;;;5041547;28;20076;-63
2021/12/05 02:47:13;;;;;;;11.25;5.03;;;;;;;;;;5046642;28;20557;-63
2021/12/05 02:49:41;;;;;;;12.27;6.07;;;;;;;;;;5040056;28;20080;-63
2021/12/05 02:52:09;;;;;;;9.57;4.50;;;;;;;;;;5043574;28;20475;-63
2021/12/05 02:54:43;;;;;;;9.80;5.37;;;;;;;;;;5042434;28;20095;-63
2021/12/05 02:57:12;;;;;;;14.17;5.67;;;;;;;;;;5042070;28;20096;-63
2021/12/05 02:59:52;;;;;;;10.63;5.17;;;;;;;;;;5040790;28;20113;-63
2021/12/05 03:02:26;;;;;;;11.97;5.40;;;;;;;;;;5043056;28;20531;-63
2021/12/05 03:04:55;;;;;;;13.37;5.47;;;;;;;;;;5030094;28;20060;-63
2021/12/05 03:07:27;;;;;;;11.93;5.07;;;;;;;;;;5041260;28;20060;-63
2021/12/05 03:09:53;;;;;;;11.07;4.80;;;;;;;;;;5044537;28;20196;-63
2021/12/05 03:12:20;;;;;;;10.75;3.88;;;;;;;;;;5044280;28;20108;-63
2021/12/05 03:14:48;;;;;;;7.60;3.75;;;;;;;;;;5044178;28;20432;-63
2021/12/05 03:17:15;;;;;;;11.87;4.67;;;;;;;;;;5044865;28;20310;-62
2021/12/05 03:19:41;;;;;;;9.40;4.40;;;;;;;;;;5042925;28;20053;-63
2021/12/05 03:22:08;;;;;;;10.35;5.30;;;;;;;;;;5041259;28;20847;-63
2021/12/05 03:24:35;;;;;;;9.98;5.47;;;;;;;;;;5047911;28;20135;-63
2021/12/05 03:27:01;;;;;;;8.05;4.50;;;;;;;;;;5039153;28;20073;-63
2021/12/05 03:29:28;;;;;;;10.93;4.88;;;;;;;;;;5044408;28;20077;-63
2021/12/05 03:31:54;;;;;;;9.85;4.13;;;;;;;;;;5042699;28;20457;-63
2021/12/05 03:34:22;;;;;;;12.43;4.90;;;;;;;;;;5046200;28;20059;-63
2021/12/05 03:36:51;;;;;;;10.77;5.33;;;;;;;;;;5042251;28;20101;-63
2021/12/05 03:39:18;;;;;;;9.20;4.87;;;;;;;;;;5041926;28;20053;-63
2021/12/05 03:41:45;;;;;;;13.25;5.80;;;;;;;;;;5041491;28;20228;-63
2021/12/05 03:44:12;;;;;;;11.07;5.75;;;;;;;;;;5044892;28;20164;-63
2021/12/05 03:46:39;;;;;;;10.80;4.77;;;;;;;;;;5042339;28;20206;-63
2021/12/05 03:49:09;;;;;;;10.23;4.83;;;;;;;;;;5043898;28;20482;-62
2021/12/05 03:51:37;;;;;;;9.60;5.20;;;;;;;;;;5046379;28;20136;-63
2021/12/05 03:54:05;;;;;;;10.87;5.00;;;;;;;;;;5047530;28;20144;-63
2021/12/05 03:56:33;;;;;;;11.67;5.10;;;;;;;;;;5045074;28;20136;-63
2021/12/05 03:59:02;;;;;;;11.43;4.53;;;;;;;;;;5041357;28;20080;-63
2021/12/05 04:01:28;;;;;;;8.97;3.83;;;;;;;;;;5045131;28;20041;-63
2021/12/05 04:03:56;;;;;;;11.10;5.13;;;;;;;;;;5044559;28;20053;-63
2021/12/05 04:06:24;;;;;;;10.55;4.60;;;;;;;;;;5042012;28;20774;-63
2021/12/05 04:08:50;;;;;;;;;;;;;;;;;;5047252;28;20077;-63
2021/12/05 04:11:19;;;;;;;9.60;4.90;;;;;;;;;;5042801;28;19960;-63
2021/12/05 04:13:45;;;;;;;8.53;4.67;;;;;;;;;;5047263;28;20083;-63
2021/12/05 04:16:13;;;;;;;10.95;4.38;;;;;;;;;;5045522;28;20060;-63
2021/12/05 04:18:40;;;;;;;7.30;3.00;;;;;;;;;;5050104;28;20049;-63
2021/12/05 04:21:08;;;;;;;10.30;4.83;;;;;;;;;;5049567;28;20048;-63
2021/12/05 04:23:34;;;;;;;8.70;4.53;;;;;;;;;;5044712;28;20993;-63
2021/12/05 04:26:01;;;;;;;8.57;4.43;;;;;;;;;;5045070;28;20077;-63
2021/12/05 04:28:28;;;;;;;10.23;5.22;;;;;;;;;;5049180;28;20129;-63
2021/12/05 04:30:57;;;;;;;8.97;4.23;;;;;;;;;;5045108;28;20419;-63
2021/12/05 04:33:24;;;;;;;12.95;4.63;;;;;;;;;;5039019;28;20156;-63
2021/12/05 04:35:51;;;;;;;11.47;5.53;;;;;;;;;;5042134;28;20077;-63
2021/12/05 04:38:17;;;;;;;8.80;4.80;;;;;;;;;;5043223;28;20079;-63
2021/12/05 04:40:47;;;;;;;10.13;4.70;;;;;;;;;;5042847;28;20045;-63
2021/12/05 04:43:14;;;;;;;9.27;5.03;;;;;;;;;;5045563;28;20794;-63
2021/12/05 04:45:41;;;;;;;7.78;4.18;;;;;;;;;;5042129;28;20133;-63
2021/12/05 04:48:07;;;;;;;8.48;4.72;;;;;;;;;;5042931;28;20049;-63
2021/12/05 04:50:35;;;;;;;8.20;4.78;;;;;;;;;;5042797;28;20508;-63
2021/12/05 04:53:01;;;;;;;8.55;4.30;;;;;;;;;;5042135;28;20602;-63
2021/12/05 04:55:28;;;;;;;11.30;4.65;;;;;;;;;;5044421;28;20077;-63
2021/12/05 04:57:55;;;;;;;9.32;3.83;;;;;;;;;;5042065;28;20136;-63
2021/12/05 05:00:29;;;;;;;9.60;4.53;;;;;;;;;;5040848;28;20099;-63
2021/12/05 05:02:56;;;;;;;11.97;4.90;;;;;;;;;;5041558;28;20049;-63
2021/12/05 05:05:23;;;;;;;;;;;;;;;;;;5045254;28;20053;-63
2021/12/05 05:07:50;;;;;;;8.43;4.00;;;;;;;;;;5041855;28;19960;-63
2021/12/05 05:10:24;;;;;;;7.17;4.57;;;;;;;;;;5044120;28;20049;-63
2021/12/05 05:12:52;;;;;;;9.50;4.87;;;;;;;;;;5043632;28;20492;-63
2021/12/05 05:15:23;;;;;;;10.60;4.82;;;;;;;;;;5053197;28;20492;-62
2021/12/05 05:17:51;;;;;;;9.27;4.73;;;;;;;;;;5040960;28;20138;-63
2021/12/05 05:47:54;;;;;;;10.80;5.37;;;;;;;;;;5040024;28;20076;-63
2021/12/05 05:50:21;;;;;;;11.03;4.90;;;;;;;;;;5027647;28;20133;-63
2021/12/05 05:52:48;;;;;;;13.02;5.15;;;;;;;;;;5044174;28;20068;-63
2021/12/05 05:55:15;;;;;;;7.22;4.35;;;;;;;;;;5046905;28;20099;-63
2021/12/05 05:57:58;;;;;;;8.35;4.40;;;;;;;;;;5043243;28;20049;-63
2021/12/05 06:00:38;;;;;;;6.60;4.03;;;;;;;;;;5036912;28;20081;-63
2021/12/05 06:03:24;;;;;;;7.90;4.40;;;;;;;;;;5043517;28;20065;-63
2021/12/05 06:05:51;;;;;;;9.20;4.77;;;;;;;;;;5028701;28;20045;-63
2021/12/05 06:08:19;;;;;;;9.15;4.65;;;;;;;;;;5044092;28;20128;-63
2021/12/05 06:10:46;;;;;;;5.93;3.80;;;;;;;;;;5043836;28;20084;-63
2021/12/05 06:13:13;;;;;;;;;;;;;;;;;;5044922;28;20515;-63
2021/12/05 06:15:40;;;;;;;8.13;3.93;;;;;;;;;;5040816;28;20028;-63
2021/12/05 06:18:07;;;;;;;6.37;3.90;;;;;;;;;;5041841;28;20089;-63
2021/12/05 06:20:33;;;;;;;4.63;3.05;;;;;;;;;;5044639;28;20707;-63
2021/12/05 06:23:01;;;;;;;6.13;3.30;;;;;;;;;;5043438;28;20440;-63
2021/12/05 06:25:28;;;;;;;7.00;3.25;;;;;;;;;;5042489;28;20077;-63
2021/12/05 06:27:55;;;;;;;;;;;;;;;;;;5043947;28;20045;-63
2021/12/05 06:30:33;;;;;;;5.23;2.60;;;;;;;;;;5045976;28;20028;-63
2021/12/05 06:41:22;;;;;;;5.25;2.60;;;;;;;;;;5011894;28;20133;-63
2021/12/05 06:46:22;;;;;;;6.37;3.13;;;;;;;;;;5049371;28;20045;-63
2021/12/05 06:48:52;;;;;;;3.87;2.77;;;;;;;;;;5043009;28;20077;-63
2021/12/05 06:51:20;;;;;;;4.72;2.63;;;;;;;;;;5045090;28;20073;-63
2021/12/05 06:53:47;;;;;;;3.60;2.80;;;;;;;;;;5044316;28;20544;-63
2021/12/05 06:56:13;;;;;;;4.45;3.03;;;;;;;;;;5044796;28;20049;-63
2021/12/05 06:58:41;;;;;;;8.35;2.67;;;;;;;;;;5046318;28;20183;-63
2021/12/05 07:01:09;;;;;;;4.20;2.47;;;;;;;;;;5042598;28;20041;-63
2021/12/05 07:03:37;;;;;;;4.87;2.87;;;;;;;;;;5042063;28;20052;-63
2021/12/05 07:06:10;;;;;;;3.40;2.60;;;;;;;;;;5025492;28;20132;-63
2021/12/05 07:08:39;;;;;;;5.07;2.70;;;;;;;;;;5043469;28;20102;-63
2021/12/05 07:11:20;;;;;;;4.47;2.90;;;;;;;;;;5040097;28;20087;-63
2021/12/05 07:19:45;;;;;;;7.20;3.07;;;;;;;;;;5040173;28;20049;-63
2021/12/05 07:21:53;;;;;;;3.33;2.50;;;;;;;;;;5033008;28;20089;-63
2021/12/05 07:41:07;;;;;;;4.03;2.40;;;;;;;;;;5034682;28;20473;-63
2021/12/05 07:43:34;;;;;;;4.27;2.67;;;;;;;;;;5043266;28;20804;-63
2021/12/05 07:46:06;;;;;;;3.03;2.07;;;;;;;;;;5045957;28;20057;-63
2021/12/05 07:48:35;;;;;;;3.10;2.20;;;;;;;;;;5043563;28;20299;-63
2021/12/05 07:53:52;;;;;;;3.33;1.90;;;;;;;;;;5038992;28;20445;-63
2021/12/05 08:16:00;;;;;;;3.43;2.17;;;;;;;;;;5035701;28;20049;-63
2021/12/05 08:18:28;;;;;;;2.63;2.00;;;;;;;;;;5031603;28;20080;-63
2021/12/05 08:20:56;;;;;;;4.60;2.40;;;;;;;;;;5040366;28;20381;-63
2021/12/05 08:23:25;;;;;;;3.42;2.22;;;;;;;;;;5041099;28;20104;-63
2021/12/05 08:26:04;;;;;;;1.73;1.63;;;;;;;;;;5043023;28;20139;-63
2021/12/05 08:28:52;;;;;;;3.60;2.60;;;;;;;;;;5042808;28;20127;-63
2021/12/05 08:45:42;;;;;;;2.50;2.00;;;;;;;;;;5040086;28;20064;-63
2021/12/05 09:26:44;;;;;;;4.30;2.27;;;;;;;;;;5041463;28;20136;-63
2021/12/05 10:02:23;;;;;;;3.10;2.33;;;;;;;;;;5040339;28;20088;-63
2021/12/05 10:19:16;;;;;;;4.30;2.40;;;;;;;;;;5036054;28;20087;-63
2021/12/05 10:37:36;;;;;;;3.90;2.77;;;;;;;;;;5046052;28;20140;-63
2021/12/05 10:40:14;;;;;;;2.70;1.80;;;;;;;;;;5040197;28;20666;-63
2021/12/05 10:42:45;;;;;;;3.10;2.00;;;;;;;;;;5038341;28;20527;-64
2021/12/05 10:45:31;;;;;;;2.40;2.20;;;;;;;;;;5040336;28;20124;-63
2021/12/05 10:48:00;;;;;;;6.07;2.27;;;;;;;;;;5041421;28;20072;-64
2021/12/05 10:50:47;;;;;;;4.43;1.90;;;;;;;;;;5040674;28;20480;-63
2021/12/05 10:53:16;;;;;;;3.27;2.20;;;;;;;;;;5045096;28;20102;-63
2021/12/05 10:55:43;;;;;;;3.37;2.27;;;;;;;;;;5040855;28;20525;-64
2021/12/05 10:58:09;;;;;;;3.40;2.22;;;;;;;;;;5041213;28;20095;-63
2021/12/05 11:00:36;;;;;;;4.25;2.10;;;;;;;;;;5038811;28;20084;-63
2021/12/05 11:03:13;;;;;;;4.32;2.10;;;;;;;;;;5046427;28;20394;-63
2021/12/05 11:05:41;;;;;;;5.50;2.03;;;;;;;;;;5041068;28;20069;-63
2021/12/05 11:08:26;;;;;;;3.27;2.20;;;;;;;;;;5042920;28;20049;-63
2021/12/05 11:11:25;;;;;;;3.57;2.10;;;;;;;;;;5043344;28;20132;-63
2021/12/05 11:13:52;;;;;;;2.17;1.80;;;;;;;;;;4995312;28;20049;-63
2021/12/05 11:16:31;;;;;;;4.10;1.70;;;;;;;;;;5044132;28;20053;-64
2021/12/05 11:18:58;;;;;;;2.53;1.80;;;;;;;;;;5040436;28;20253;-63
2021/12/05 11:21:25;;;;;;;3.63;2.03;;;;;;;;;;5044676;28;20575;-63
2021/12/05 11:24:08;;;;;;;2.42;1.58;;;;;;;;;;5038876;28;20131;-63
2021/12/05 11:26:34;;;;;;;1.83;1.50;;;;;;;;;;5037815;28;20057;-63
2021/12/05 11:29:01;;;;;;;2.40;1.90;;;;;;;;;;5044363;28;20041;-63
2021/12/05 11:31:29;;;;;;;3.90;1.93;;;;;;;;;;5038801;28;20136;-63
2021/12/05 11:33:56;;;;;;;3.33;2.10;;;;;;;;;;5038243;28;20287;-63
2021/12/05 11:36:28;;;;;;;2.28;1.77;;;;;;;;;;5040984;28;20081;-63
2021/12/05 11:38:55;;;;;;;2.67;1.97;;;;;;;;;;5041211;28;20045;-63
2021/12/05 11:41:23;;;;;;;4.68;1.90;;;;;;;;;;5042606;28;20164;-63
2021/12/05 11:43:49;;;;;;;;;;;;;;;;;;5038075;28;20543;-63
2021/12/05 11:46:17;;;;;;;3.43;2.60;;;;;;;;;;5030964;28;19960;-63
2021/12/05 11:48:48;;;;;;;5.27;2.53;;;;;;;;;;5043475;28;20051;-63
2021/12/05 11:51:21;;;;;;;2.17;1.90;;;;;;;;;;5039117;28;20076;-63
2021/12/05 11:53:54;;;;;;;3.57;2.00;;;;;;;;;;5039524;28;20144;-63
2021/12/05 11:56:30;;;;;;;2.60;1.80;;;;;;;;;;5039615;28;20076;-63
2021/12/05 11:59:20;;;;;;;4.87;2.03;;;;;;;;;;5051921;28;20041;-63
2021/12/05 12:02:20;;;;;;;3.30;1.97;;;;;;;;;;5032351;28;20045;-64
2021/12/05 12:04:47;;;;;;;3.03;2.30;;;;;;;;;;4991646;28;20051;-63
2021/12/05 12:07:18;;;;;;;5.00;2.40;;;;;;;;;;5042788;28;20057;-63
2021/12/05 12:09:46;;;;;;;2.83;2.03;;;;;;;;;;5044619;28;20084;-63
2021/12/05 12:12:14;;;;;;;3.10;2.10;;;;;;;;;;5054482;28;20083;-63
2021/12/05 12:14:41;;;;;;;2.20;1.80;;;;;;;;;;5042744;28;20167;-63
2021/12/05 12:17:14;;;;;;;2.38;2.15;;;;;;;;;;5044867;28;20060;-63
2021/12/05 12:19:41;;;;;;;3.03;1.87;;;;;;;;;;5045865;28;20045;-63
2021/12/05 12:22:08;;;;;;;6.43;2.65;;;;;;;;;;5047134;28;20579;-63
2021/12/05 12:24:37;;;;;;;3.90;2.10;;;;;;;;;;5045134;28;20114;-63
2021/12/05 12:27:04;;;;;;;2.90;2.00;;;;;;;;;;5048623;28;20139;-63
2021/12/05 12:29:31;;;;;;;4.03;2.92;;;;;;;;;;5042562;28;20567;-63
2021/12/05 12:32:03;;;;;;;2.95;1.98;;;;;;;;;;5045174;28;20076;-63
2021/12/05 12:34:29;;;;;;;4.73;1.90;;;;;;;;;;5046493;28;20512;-63
2021/12/05 12:37:00;;;;;;;2.70;1.97;;;;;;;;;;5042081;28;20099;-63
2021/12/05 12:39:38;;;;;;;3.73;2.53;;;;;;;;;;5043346;28;20131;-63
2021/12/05 12:42:13;;;;;;;2.50;1.83;;;;;;;;;;5045480;28;20468;-62
2021/12/05 12:45:09;;;;;;;4.13;2.00;;;;;;;;;;5037937;28;20049;-63
2021/12/05 12:47:38;;;;;;;4.63;2.30;;;;;;;;;;5022432;28;20144;-63
2021/12/05 12:50:20;;;;;;;3.13;2.07;;;;;;;;;;5039204;28;20057;-63
2021/12/05 12:53:18;;;;;;;3.63;2.30;;;;;;;;;;5044683;28;20108;-63
2021/12/05 12:55:49;;;;;;;4.13;2.70;;;;;;;;;;5024119;28;20503;-63
2021/12/05 12:58:36;;;;;;;3.63;2.40;;;;;;;;;;5041646;28;20073;-63
2021/12/05 13:01:16;;;;;;;3.90;2.30;;;;;;;;;;5038763;28;20140;-63
2021/12/05 13:04:07;;;;;;;2.90;2.10;;;;;;;;;;5044315;28;20042;-63
2021/12/05 13:12:48;;;;;;;3.40;2.17;;;;;;;;;;5042362;28;20084;-63
2021/12/05 13:15:16;;;;;;;2.70;1.90;;;;;;;;;;5033357;28;20080;-63
2021/12/05 13:17:42;;;;;;;;;;;;;;;;;;5029295;28;20551;-63
2021/12/05 13:20:10;;;;;;;2.67;1.70;;;;;;;;;;5043833;28;19920;-63
2021/12/05 13:22:56;;;;;;;3.57;2.37;;;;;;;;;;5043845;28;20044;-63
2021/12/05 13:25:22;;;;;;;3.27;1.93;;;;;;;;;;5045044;28;20077;-63
2021/12/05 13:27:49;;;;;;;3.40;1.92;;;;;;;;;;5043959;28;20131;-63
2021/12/05 13:30:32;;;;;;;3.70;2.20;;;;;;;;;;5045611;28;20084;-63
2021/12/05 13:33:18;;;;;;;3.67;2.00;;;;;;;;;;5044942;28;20049;-63
2021/12/05 13:35:45;;;;;;;3.30;2.07;;;;;;;;;;5041323;28;20136;-63
2021/12/05 13:38:41;;;;;;;2.53;1.80;;;;;;;;;;5042947;28;20092;-63
2021/12/05 13:41:19;;;;;;;2.70;2.10;;;;;;;;;;5022472;28;20110;-63
2021/12/05 13:43:56;;;;;;;3.67;2.15;;;;;;;;;;5048001;28;20127;-63
2021/12/05 13:46:39;;;;;;;3.73;2.07;;;;;;;;;;5044983;28;20092;-63
2021/12/05 13:49:24;;;;;;;2.40;2.07;;;;;;;;;;5043577;28;20442;-63
2021/12/05 13:51:51;;;;;;;4.57;2.23;;;;;;;;;;5045177;28;20488;-63
2021/12/05 13:54:24;;;;;;;3.47;2.10;;;;;;;;;;5043067;28;20072;-63
2021/12/05 13:57:05;;;;;;;2.50;1.83;;;;;;;;;;5044800;28;20566;-63
2021/12/05 13:59:32;;;;;;;3.07;2.13;;;;;;;;;;5037670;28;20140;-63
2021/12/05 14:02:00;;;;;;;4.93;1.80;;;;;;;;;;5038818;28;20133;-63
2021/12/05 14:04:27;;;;;;;2.40;1.97;;;;;;;;;;5045267;28;20053;-63
2021/12/05 14:06:59;;;;;;;3.60;2.23;;;;;;;;;;5031486;28;20146;-63
2021/12/05 14:09:25;;;;;;;1.97;1.73;;;;;;;;;;5044366;28;20046;-63
2021/12/05 14:11:58;;;;;;;3.43;2.00;;;;;;;;;;5045885;28;20072;-63
2021/12/05 14:14:45;;;;;;;3.30;2.10;;;;;;;;;;5045223;28;20707;-63
2021/12/05 14:17:20;;;;;;;2.70;2.00;;;;;;;;;;5039333;28;20120;-63
2021/12/05 14:19:48;;;;;;;2.90;1.87;;;;;;;;;;5041809;28;20149;-63
2021/12/05 14:22:16;;;;;;;2.83;2.07;;;;;;;;;;5041695;28;20111;-63
2021/12/05 14:24:42;;;;;;;;;;;;;;;;;;5047804;28;20140;-63
2021/12/05 14:27:10;;;;;;;2.40;1.83;;;;;;;;;;5041390;28;20006;-63
2021/12/05 14:29:40;;;;;;;3.40;2.10;;;;;;;;;;5046634;28;20046;-63
2021/12/05 14:32:09;;;;;;;2.90;2.10;;;;;;;;;;5037923;28;20093;-63
2021/12/05 14:34:37;;;;;;;3.03;2.07;;;;;;;;;;5038455;28;20132;-63
2021/12/05 14:37:12;;;;;;;4.18;2.13;;;;;;;;;;5042376;28;20671;-63
2021/12/05 14:39:48;;;;;;;3.43;2.27;;;;;;;;;;5043342;28;20084;-63
2021/12/05 14:42:18;;;;;;;5.37;2.40;;;;;;;;;;5045014;28;20136;-63
2021/12/05 14:44:46;;;;;;;5.23;2.40;;;;;;;;;;5038066;28;20087;-63
2021/12/05 14:47:15;;;;;;;3.73;2.40;;;;;;;;;;5039395;28;20530;-63
2021/12/05 14:49:46;;;;;;;4.30;2.50;;;;;;;;;;5041073;28;20129;-63
2021/12/05 14:52:15;;;;;;;3.47;2.10;;;;;;;;;;5038641;28;20057;-63
2021/12/05 14:54:45;;;;;;;4.30;2.27;;;;;;;;;;5041802;28;20129;-63
2021/12/05 14:57:14;;;;;;;3.50;2.20;;;;;;;;;;5046045;28;20084;-63
2021/12/05 14:59:42;;;;;;;2.90;2.27;;;;;;;;;;5039385;28;20042;-63
2021/12/05 15:02:08;;;;;;;5.90;2.33;;;;;;;;;;5044364;28;20499;-63
2021/12/05 15:04:37;;;;;;;3.75;2.10;;;;;;;;;;5040891;28;20049;-63
2021/12/05 15:07:05;;;;;;;3.27;2.30;;;;;;;;;;5041341;28;20404;-63
2021/12/05 15:09:32;;;;;;;;;;;;;;;;;;5043528;28;20076;-63
2021/12/05 15:12:00;;;;;;;7.00;2.10;;;;;;;;;;5041315;28;19972;-63
2021/12/05 15:14:27;;;;;;;2.27;2.00;;;;;;;;;;5037144;28;20124;-63
2021/12/05 15:16:56;;;;;;;2.42;1.90;;;;;;;;;;5038739;28;20390;-63
2021/12/05 15:19:23;;;;;;;4.67;2.33;;;;;;;;;;5043986;28;20040;-63
2021/12/05 15:21:50;;;;;;;3.42;2.10;;;;;;;;;;5038372;28;20135;-63
2021/12/05 15:24:18;;;;;;;2.70;1.80;;;;;;;;;;5043023;28;20107;-63
2021/12/05 15:26:44;;;;;;;2.97;1.90;;;;;;;;;;5041114;28;20319;-63
2021/12/05 15:29:12;;;;;;;2.60;2.10;;;;;;;;;;5042792;28;20106;-63
2021/12/05 15:31:52;;;;;;;5.90;2.30;;;;;;;;;;5042578;28;20057;-63
2021/12/05 15:34:20;;;;;;;2.92;1.90;;;;;;;;;;5040506;28;20092;-63
2021/12/05 15:36:47;;;;;;;4.70;2.07;;;;;;;;;;5041470;28;20128;-63
2021/12/05 15:39:19;;;;;;;3.38;1.90;;;;;;;;;;5041551;28;20128;-63
2021/12/05 15:41:48;;;;;;;3.30;2.10;;;;;;;;;;5037521;28;20168;-63
2021/12/05 15:44:29;;;;;;;6.90;2.23;;;;;;;;;;5041412;28;20141;-63
2021/12/05 15:47:00;;;;;;;4.73;1.93;;;;;;;;;;5041184;28;20055;-63
2021/12/05 15:49:28;;;;;;;2.57;2.00;;;;;;;;;;5042893;28;20081;-63
2021/12/05 15:52:00;;;;;;;5.83;2.40;;;;;;;;;;5040982;28;20132;-63
2021/12/05 15:54:28;;;;;;;3.10;2.03;;;;;;;;;;5042186;28;20103;-63
2021/12/05 15:57:04;;;;;;;2.40;1.70;;;;;;;;;;5044215;28;20587;-63
2021/12/05 15:59:37;;;;;;;6.20;2.30;;;;;;;;;;5042832;28;20383;-63
2021/12/05 16:02:07;;;;;;;3.37;2.20;;;;;;;;;;5037254;28;20148;-63
2021/12/05 16:04:35;;;;;;;5.20;2.23;;;;;;;;;;5040584;28;20120;-63
2021/12/05 16:07:02;;;;;;;3.08;1.77;;;;;;;;;;5041642;28;20131;-63
2021/12/05 16:09:28;;;;;;;2.50;1.88;;;;;;;;;;5042216;28;20466;-63
2021/12/05 16:12:06;;;;;;;4.07;2.13;;;;;;;;;;5038002;28;20515;-63
2021/12/05 16:14:35;;;;;;;1.90;1.60;;;;;;;;;;5043728;28;20079;-63
2021/12/05 16:17:12;;;;;;;2.63;1.90;;;;;;;;;;5044431;28;20723;-63
2021/12/05 16:19:38;;;;;;;3.47;2.30;;;;;;;;;;5041562;28;20139;-63
2021/12/05 16:22:19;;;;;;;3.67;2.10;;;;;;;;;;5041065;28;20672;-63
2021/12/05 16:24:46;;;;;;;1.70;1.60;;;;;;;;;;5038679;28;20079;-63
2021/12/05 16:27:13;;;;;;;1.73;1.60;;;;;;;;;;5043361;28;20468;-63
2021/12/05 16:29:39;;;;;;;8.53;2.00;;;;;;;;;;5038751;28;20125;-63
2021/12/05 16:32:06;;;;;;;2.75;1.70;;;;;;;;;;5037680;28;20046;-63
2021/12/05 16:34:33;;;;;;;3.10;1.97;;;;;;;;;;5039462;28;20055;-63
2021/12/05 16:37:04;;;;;;;2.17;1.80;;;;;;;;;;5039261;28;20604;-63
2021/12/05 16:39:57;;;;;;;4.77;2.20;;;;;;;;;;5038861;28;20800;-63
2021/12/05 16:42:24;;;;;;;3.27;1.90;;;;;;;;;;5034582;28;20543;-63
2021/12/05 16:44:52;;;;;;;2.50;1.40;;;;;;;;;;5038908;28;20504;-63
2021/12/05 16:47:21;;;;;;;2.97;1.67;;;;;;;;;;5040277;28;20374;-63
2021/12/05 16:49:49;;;;;;;3.37;2.10;;;;;;;;;;5035349;28;20504;-63
2021/12/05 16:52:16;;;;;;;;;;;;;;;;;;5040857;28;20136;-63
2021/12/05 16:55:21;;;;;;;3.77;2.40;;;;;;;;;;5040863;28;20088;-63
2021/12/05 16:58:10;;;;;;;2.50;1.90;;;;;;;;;;5028412;28;20056;-63
2021/12/05 17:00:39;;;;;;;3.70;2.20;;;;;;;;;;5043259;28;20132;-63
2021/12/05 17:03:07;;;;;;;3.40;2.27;;;;;;;;;;5048852;28;20492;-63
2021/12/05 17:05:36;;;;;;;3.47;2.03;;;;;;;;;;5045586;28;20056;-63
2021/12/05 17:08:17;;;;;;;3.63;2.13;;;;;;;;;;5042352;28;20049;-63
2021/12/05 17:10:53;;;;;;;4.20;2.20;;;;;;;;;;5043751;28;20072;-63
2021/12/05 17:13:20;;;;;;;5.33;2.20;;;;;;;;;;5042939;28;20525;-63
2021/12/05 17:16:07;;;;;;;2.60;1.65;;;;;;;;;;5041712;28;20215;-63
2021/12/05 17:18:35;;;;;;;3.47;2.00;;;;;;;;;;5048979;28;20423;-64
2021/12/05 17:21:05;;;;;;;2.57;1.70;;;;;;;;;;5042261;28;20057;-63
2021/12/05 17:23:36;;;;;;;3.57;2.40;;;;;;;;;;5042870;28;20152;-63
2021/12/05 17:26:18;;;;;;;3.73;2.43;;;;;;;;;;5044347;28;20050;-63
2021/12/05 17:28:50;;;;;;;3.87;2.20;;;;;;;;;;5044099;28;20045;-63
2021/12/05 17:31:21;;;;;;;5.37;2.40;;;;;;;;;;5041280;28;20104;-63
2021/12/05 17:33:51;;;;;;;4.50;2.70;;;;;;;;;;5042774;28;20528;-64
2021/12/05 17:36:17;;;;;;;4.00;2.47;;;;;;;;;;5042856;28;20248;-63
2021/12/05 17:38:44;;;;;;;3.53;1.90;;;;;;;;;;5042002;28;20045;-64
2021/12/05 17:41:11;;;;;;;3.75;2.40;;;;;;;;;;5045595;28;20139;-63
2021/12/05 17:43:38;;;;;;;3.25;2.50;;;;;;;;;;5040134;28;20652;-63
2021/12/05 17:46:05;;;;;;;3.25;2.10;;;;;;;;;;5044697;28;20132;-64
2021/12/05 17:48:33;;;;;;;3.30;2.47;;;;;;;;;;5041173;28;20106;-64
2021/12/05 17:51:03;;;;;;;4.00;2.40;;;;;;;;;;5040686;28;20152;-64
2021/12/05 17:53:32;;;;;;;3.43;2.50;;;;;;;;;;5043252;28;20475;-63
2021/12/05 17:56:08;;;;;;;4.27;2.40;;;;;;;;;;5042556;28;20603;-63
2021/12/05 18:03:57;;;;;;;4.37;2.63;;;;;;;;;;5039833;28;20530;-63
2021/12/05 18:06:24;;;;;;;4.68;2.10;;;;;;;;;;5044465;28;20475;-63
2021/12/05 18:08:50;;;;;;;3.63;2.47;;;;;;;;;;5041432;28;20092;-63
2021/12/05 18:11:22;;;;;;;3.72;2.53;;;;;;;;;;5045963;28;20499;-63
2021/12/05 18:13:53;;;;;;;2.97;2.27;;;;;;;;;;5036178;28;20497;-63
2021/12/05 18:16:23;;;;;;;4.17;2.27;;;;;;;;;;5040783;28;20159;-63
2021/12/05 18:18:51;;;;;;;3.10;2.37;;;;;;;;;;5039908;28;20071;-64
2021/12/05 18:21:20;;;;;;;5.33;2.50;;;;;;;;;;5042104;28;20084;-63
2021/12/05 18:23:47;;;;;;;3.73;2.40;;;;;;;;;;5039699;28;20481;-63
2021/12/05 18:26:14;;;;;;;3.28;2.22;;;;;;;;;;5039512;28;20527;-64
2021/12/05 18:28:41;;;;;;;5.40;2.47;;;;;;;;;;5042033;28;20080;-63
2021/12/05 18:31:08;;;;;;;3.00;2.22;;;;;;;;;;5041635;28;20131;-64
2021/12/05 18:33:35;;;;;;;;;;;;;;;;;;5037838;28;20049;-63
2021/12/05 18:36:02;;;;;;;4.87;2.43;;;;;;;;;;5039951;28;19979;-61
2021/12/05 18:38:29;;;;;;;3.78;2.60;;;;;;;;;;5037583;28;20481;-61
2021/12/05 18:40:58;;;;;;;5.88;2.60;;;;;;;;;;5040335;28;20077;-64
2021/12/05 18:43:28;;;;;;;3.60;2.30;;;;;;;;;;5040854;28;20130;-64
2021/12/05 18:45:56;;;;;;;4.83;2.40;;;;;;;;;;5037424;28;20132;-64
2021/12/05 18:48:23;;;;;;;4.38;2.80;;;;;;;;;;5041183;28;20504;-61
2021/12/05 18:50:50;;;;;;;3.17;2.00;;;;;;;;;;5041384;28;20458;-61
2021/12/05 18:53:17;;;;;;;5.75;2.50;;;;;;;;;;5038194;28;20831;-64
2021/12/05 18:55:46;;;;;;;4.17;2.23;;;;;;;;;;5040233;28;20045;-64
2021/12/05 18:58:13;;;;;;;7.10;3.60;;;;;;;;;;5041260;28;20239;-64
2021/12/05 19:04:20;;;;;;;;;;;;;;;;;;5043186;28;20132;-64
2021/12/05 19:06:21;;;;;;;3.73;2.63;;;;;;;;;;5044470;28;20140;-63
2021/12/05 19:11:45;;;;;;;4.43;2.70;;;;;;;;;;5038366;28;20588;-64
2021/12/05 19:14:13;;;;;;;4.33;2.63;;;;;;;;;;5035335;28;20053;-64
2021/12/05 19:16:41;;;;;;;3.53;2.60;;;;;;;;;;5041499;28;20593;-62
2021/12/05 19:19:09;;;;;;;3.92;2.63;;;;;;;;;;5039795;28;20076;-61
2021/12/05 19:21:36;;;;;;;5.90;2.93;;;;;;;;;;5038058;28;20052;-62
2021/12/05 19:24:02;;;;;;;5.80;2.83;;;;;;;;;;5036553;28;20945;-62
2021/12/05 19:26:29;;;;;;;3.38;2.25;;;;;;;;;;5042677;28;20072;-62
2021/12/05 19:28:57;;;;;;;3.45;2.42;;;;;;;;;;5039608;28;20135;-62
2021/12/05 19:31:23;;;;;;;5.13;2.90;;;;;;;;;;5039540;28;20095;-63
2021/12/05 19:33:50;;;;;;;4.53;2.60;;;;;;;;;;5042333;28;20052;-61
2021/12/05 19:36:19;;;;;;;6.30;2.50;;;;;;;;;;5041488;28;20084;-62
2021/12/05 19:38:47;;;;;;;5.07;3.00;;;;;;;;;;5035762;28;20092;-62
2021/12/05 19:41:13;;;;;;;5.85;2.50;;;;;;;;;;5038073;28;20140;-62
2021/12/05 19:43:40;;;;;;;6.40;3.05;;;;;;;;;;5038416;28;20084;-62
2021/12/05 19:46:10;;;;;;;5.20;2.85;;;;;;;;;;5039383;28;20049;-62
2021/12/05 19:48:37;;;;;;;3.93;2.73;;;;;;;;;;5042918;28;20069;-62
2021/12/05 19:51:07;;;;;;;5.00;2.72;;;;;;;;;;5041929;28;20148;-62
2021/12/05 19:53:35;;;;;;;5.67;3.10;;;;;;;;;;5038612;28;20095;-62
2021/12/05 19:56:03;;;;;;;5.87;3.13;;;;;;;;;;5037480;28;20512;-62
2021/12/05 19:58:29;;;;;;;;;;;;;;;;;;5038836;28;20211;-62
2021/12/05 20:00:56;;;;;;;6.90;3.30;;;;;;;;;;5037886;28;19972;-62
2021/12/05 20:03:22;;;;;;;4.25;2.85;;;;;;;;;;5036607;28;20049;-62
2021/12/05 20:05:52;;;;;;;5.33;3.00;;;;;;;;;;5041046;28;20509;-62
2021/12/05 20:08:19;;;;;;;5.70;3.10;;;;;;;;;;5036739;28;20619;-62
2021/12/05 20:10:46;;;;;;;6.18;3.20;;;;;;;;;;5037349;28;20049;-63
2021/12/05 20:13:13;;;;;;;4.32;2.80;;;;;;;;;;5040579;28;20053;-62
2021/12/05 20:15:40;;;;;;;5.00;2.72;;;;;;;;;;5040878;28;20584;-63
2021/12/05 20:18:09;;;;;;;4.53;2.60;;;;;;;;;;5018318;28;20115;-63
2021/12/05 20:20:36;;;;;;;5.20;3.20;;;;;;;;;;5020535;28;20129;-63
2021/12/05 20:23:03;;;;;;;5.53;2.88;;;;;;;;;;5013726;28;20133;-63
2021/12/05 20:25:30;;;;;;;5.20;3.10;;;;;;;;;;5018999;28;20082;-62
2021/12/05 20:27:57;;;;;;;5.57;2.53;;;;;;;;;;5019182;28;20124;-62
2021/12/05 20:30:26;;;;;;;4.17;2.70;;;;;;;;;;5020313;28;20542;-62
2021/12/05 20:32:54;;;;;;;3.67;2.50;;;;;;;;;;5021944;28;20484;-62
2021/12/05 20:35:20;;;;;;;4.97;3.03;;;;;;;;;;5026349;28;20116;-62
2021/12/05 20:37:54;;;;;;;4.05;2.78;;;;;;;;;;5021131;28;20065;-62
2021/12/05 20:40:20;;;;;;;4.13;2.73;;;;;;;;;;5024210;28;20050;-62
2021/12/05 20:42:49;;;;;;;4.18;1.95;;;;;;;;;;5018363;28;20058;-62
2021/12/05 20:45:20;;;;;;;4.03;2.63;;;;;;;;;;5022855;28;20096;-63
2021/12/05 20:47:47;;;;;;;3.87;3.00;;;;;;;;;;5023802;28;20049;-62